Terminal Aerodrome Forecast
Issued by NWS Charleston, WV

Current Version | Previous Version | Text Only | Print | Product List | Glossary Off
Versions: 1 2 3 4 5 6 7 8 9 10 11 12 13 14 15 16 17 18 19 20 21

816
FTUS41 KRLX 170242 AAA
TAFBKW
TAF AMD
KBKW 170242Z 1703/1724 VRB03KT P6SM SCT080
     FM171600 24005KT P6SM SCT025
     FM171800 24005KT P6SM VCTS SCT035CB=

USA.gov is the U.S. government's official web portal to all federal, state and local government web resources and services.